Time;durP1;ratioP1;P1;durP2;ratioP2;P2;SDS_P1;SDS_P2;PMS_P1;PMS_P2;Temp;Humidity;BMP_temperature;BMP_pressure;BME280_temperature;BME280_humidity;BME280_pressure;Samples;Min_cycle;Max_cycle;Signal;HPM_P1;HPM_P2
2023/06/26 00:00:05;;;;;;;7.60;6.90;;;;;;;21.38;85.75;100699.09;4859362;29;20044;-86
2023/06/26 00:02:32;;;;;;;6.75;6.15;;;;;;;21.35;85.96;100708.09;4864184;29;20120;-87
2023/06/26 00:05:02;;;;;;;7.38;6.55;;;;;;;21.31;86.00;100699.44;4849741;29;20073;-86
2023/06/26 00:10:10;;;;;;;6.80;6.10;;;;;;;21.25;86.02;100693.56;4868772;29;20045;-86
2023/06/26 00:12:36;;;;;;;6.88;6.28;;;;;;;21.22;86.03;100691.06;4857520;29;20140;-87
2023/06/26 00:15:03;;;;;;;6.85;6.25;;;;;;;21.19;86.03;100688.56;4851470;29;20056;-87
2023/06/26 00:17:30;;;;;;;7.22;6.53;;;;;;;21.17;86.65;100691.28;4864505;29;20504;-86
2023/06/26 00:19:56;;;;;;;8.75;6.78;;;;;;;21.14;86.12;100686.16;4861779;29;20112;-86
2023/06/26 00:22:23;;;;;;;7.20;6.53;;;;;;;21.11;86.38;100684.50;4848130;29;20057;-86
2023/06/26 00:24:50;;;;;;;8.63;6.10;;;;;;;21.09;86.66;100682.88;4853941;29;20048;-87
2023/06/26 00:27:16;;;;;;;7.07;6.40;;;;;;;21.06;86.81;100683.03;4876364;29;20045;-87
2023/06/26 00:29:43;;;;;;;6.80;6.10;;;;;;;21.04;86.65;100683.13;4859764;29;20093;-87
2023/06/26 00:32:09;;;;;;;7.57;6.88;;;;;;;21.00;86.73;100676.22;4848841;29;20057;-86
2023/06/26 00:34:36;;;;;;;6.22;5.60;;;;;;;20.97;86.93;100677.22;4865219;29;20053;-85
2023/06/26 00:37:03;;;;;;;7.00;6.30;;;;;;;20.95;86.87;100678.25;4868251;29;20045;-86
2023/06/26 00:39:30;;;;;;;6.25;5.30;;;;;;;20.92;86.85;100673.09;4870102;29;20544;-86
2023/06/26 00:41:57;;;;;;;6.80;6.18;;;;;;;20.90;86.87;100678.50;4882525;29;20056;-86
2023/06/26 00:44:23;;;;;;;6.75;6.13;;;;;;;20.86;86.81;100676.94;4852498;29;20190;-85
2023/06/26 00:46:50;;;;;;;6.60;6.00;;;;;;;20.86;86.54;100673.41;4852298;29;20049;-86
2023/06/26 00:49:16;;;;;;;6.70;6.13;;;;;;;20.84;86.60;100667.31;4848608;29;20049;-87
2023/06/26 00:51:44;;;;;;;6.68;6.05;;;;;;;20.82;86.38;100672.72;4847891;29;20084;-85
2023/06/26 00:54:11;;;;;;;9.15;6.50;;;;;;;20.80;86.31;100664.81;4848085;29;20061;-87
2023/06/26 00:56:38;;;;;;;6.55;6.05;;;;;;;20.78;86.25;100664.03;4852748;29;20087;-86
2023/06/26 00:59:04;;;;;;;6.35;5.75;;;;;;;20.77;86.15;100664.13;4859810;29;20513;-86
2023/06/26 01:01:31;;;;;;;6.80;6.18;;;;;;;20.75;86.44;100666.00;4847412;29;20571;-87
2023/06/26 01:03:57;;;;;;;7.57;6.82;;;;;;;20.74;86.39;100667.81;4864923;29;20076;-86
2023/06/26 01:06:25;;;;;;;7.05;6.32;;;;;;;20.72;86.58;100668.81;4845449;29;20136;-86
2023/06/26 01:08:52;;;;;;;6.57;5.97;;;;;;;20.69;86.26;100666.28;4861858;29;20049;-86
2023/06/26 01:11:19;;;;;;;6.85;5.50;;;;;;;20.69;85.98;100658.28;4831621;29;20057;-87
2023/06/26 01:13:46;;;;;;;5.68;5.10;;;;;;;20.64;86.12;100662.06;4848659;29;20052;-85
2023/06/26 01:16:15;;;;;;;5.97;5.13;;;;;;;20.64;86.03;100656.72;4871501;29;20063;-86
2023/06/26 01:18:43;;;;;;;6.82;6.18;;;;;;;20.61;85.94;100648.03;4847119;29;20235;-86
2023/06/26 01:21:11;;;;;;;6.13;5.47;;;;;;;20.59;85.97;100649.94;4880840;29;20060;-87
2023/06/26 01:24:05;;;;;;;6.35;5.60;;;;;;;20.57;86.35;100649.13;4842795;29;20045;-87
2023/06/26 01:26:35;;;;;;;;;;;;;;;20.53;86.43;100640.44;4843924;29;20537;-87
2023/06/26 01:29:03;;;;;;;7.07;6.43;;;;;;;20.50;86.60;100645.94;4860595;29;20456;-87
2023/06/26 01:31:31;;;;;;;8.63;6.00;;;;;;;20.48;86.21;100647.81;4860891;29;20049;-85
2023/06/26 01:34:00;;;;;;;6.10;5.50;;;;;;;20.44;86.33;100641.81;4876333;29;20514;-86
2023/06/26 01:36:27;;;;;;;6.10;5.50;;;;;;;20.43;86.31;100653.38;4843971;29;20056;-87
2023/06/26 01:38:54;;;;;;;6.78;6.13;;;;;;;20.37;86.49;100637.72;4866949;29;20040;-86
2023/06/26 01:41:21;;;;;;;8.73;6.05;;;;;;;20.36;86.43;100643.13;4847498;29;20061;-86
2023/06/26 01:44:08;;;;;;;6.50;6.00;;;;;;;20.33;86.86;100630.84;4858387;29;20489;-86
2023/06/26 01:46:47;;;;;;;5.63;5.22;;;;;;;20.29;86.89;100624.81;4875039;29;20562;-86
2023/06/26 01:49:34;;;;;;;6.00;5.50;;;;;;;20.29;87.07;100626.63;4852268;29;20561;-85
2023/06/26 01:52:18;;;;;;;6.50;5.90;;;;;;;20.24;87.15;100616.19;4866221;29;20424;-86
2023/06/26 01:55:35;;;;;;;6.30;5.72;;;;;;;20.21;87.29;100612.84;4870317;29;20045;-86
2023/06/26 01:58:03;;;;;;;5.75;5.20;;;;;;;20.19;87.10;100612.91;4850879;29;20064;-87
2023/06/26 02:00:30;;;;;;;5.88;5.32;;;;;;;20.14;87.24;100607.84;4848489;29;20052;-86
2023/06/26 02:02:56;;;;;;;5.95;5.35;;;;;;;20.13;87.06;100608.78;4863413;29;20147;-87
2023/06/26 02:05:23;;;;;;;6.28;5.60;;;;;;;20.10;87.85;100600.09;4866084;29;20053;-85
2023/06/26 02:07:52;;;;;;;6.63;5.82;;;;;;;20.07;88.01;100602.91;4851921;29;20049;-85
2023/06/26 02:10:18;;;;;;;5.97;5.35;;;;;;;20.03;88.21;100596.88;4857453;29;20094;-86
2023/06/26 02:12:45;;;;;;;8.85;5.60;;;;;;;20.00;88.30;100597.88;4851813;29;20045;-85
2023/06/26 02:15:11;;;;;;;5.97;5.43;;;;;;;19.96;88.74;100601.63;4873987;29;20045;-85
2023/06/26 02:17:38;;;;;;;5.70;5.22;;;;;;;19.93;88.69;100591.16;4867323;29;20048;-87
2023/06/26 02:20:09;;;;;;;6.38;5.80;;;;;;;19.92;88.78;100591.22;4865616;29;20053;-88
2023/06/26 02:22:35;;;;;;;6.50;5.85;;;;;;;19.90;88.24;100596.63;4856209;29;20053;-88
2023/06/26 02:25:02;;;;;;;5.78;5.28;;;;;;;19.88;88.50;100590.53;4877657;29;20049;-87
2023/06/26 02:27:29;;;;;;;6.57;5.30;;;;;;;19.90;88.61;100598.44;4849475;29;20041;-85
2023/06/26 02:29:55;;;;;;;6.68;5.10;;;;;;;19.92;87.75;100593.88;4861948;29;20136;-85
2023/06/26 02:32:22;;;;;;;7.13;5.15;;;;;;;19.88;87.65;100587.00;4877934;29;20045;-85
2023/06/26 02:34:48;;;;;;;8.23;5.43;;;;;;;19.87;87.61;100583.50;4861614;29;20109;-86
2023/06/26 02:37:16;;;;;;;5.60;5.05;;;;;;;19.85;87.49;100585.34;4855114;29;20076;-86
2023/06/26 02:39:42;;;;;;;5.53;4.82;;;;;;;19.85;87.36;100576.53;4851244;29;20155;-86
2023/06/26 02:42:09;;;;;;;5.07;4.65;;;;;;;19.83;87.08;100584.59;4858601;29;20546;-86
2023/06/26 02:44:35;;;;;;;6.60;4.82;;;;;;;19.80;87.05;100577.59;4862372;29;20046;-85
2023/06/26 02:47:02;;;;;;;6.95;4.45;;;;;;;19.79;86.90;100575.00;4864877;29;20135;-86
2023/06/26 02:49:28;;;;;;;6.20;5.32;;;;;;;19.77;87.02;100576.88;4846212;29;20105;-87
2023/06/26 02:51:56;;;;;;;5.18;4.68;;;;;;;19.76;87.12;100569.84;4860746;29;20063;-86
2023/06/26 02:54:22;;;;;;;5.38;5.00;;;;;;;19.76;86.47;100572.50;4876008;29;20549;-87
2023/06/26 02:56:49;;;;;;;5.82;5.22;;;;;;;19.74;86.79;100559.28;4867736;29;20045;-86
2023/06/26 02:59:15;;;;;;;6.80;5.13;;;;;;;19.74;86.33;100563.75;4851802;29;20136;-87
2023/06/26 03:01:42;;;;;;;4.68;4.20;;;;;;;19.73;86.24;100559.38;4844187;29;20060;-87
2023/06/26 03:04:10;;;;;;;6.00;4.70;;;;;;;19.76;85.77;100556.56;4851196;29;20077;-87
2023/06/26 03:06:36;;;;;;;6.75;5.43;;;;;;;19.78;85.20;100560.00;4865459;29;20047;-86
2023/06/26 03:09:03;;;;;;;5.80;4.68;;;;;;;19.79;85.06;100553.75;4868702;29;20614;-88
2023/06/26 03:11:29;;;;;;;5.30;4.85;;;;;;;19.79;84.68;100557.28;4860228;29;20117;-87
2023/06/26 03:13:56;;;;;;;5.70;5.18;;;;;;;19.81;84.40;100557.19;4862094;29;20052;-87
2023/06/26 03:16:22;;;;;;;5.22;4.72;;;;;;;19.82;84.06;100558.94;4858638;29;20113;-85
2023/06/26 03:18:49;;;;;;;4.72;4.28;;;;;;;19.80;84.01;100553.69;4877746;29;20075;-85
2023/06/26 03:21:16;;;;;;;5.05;4.63;;;;;;;19.84;83.68;100546.44;4865359;29;20153;-86
2023/06/26 03:23:42;;;;;;;5.00;4.53;;;;;;;19.89;83.15;100543.56;4847869;29;20052;-86
2023/06/26 03:26:09;;;;;;;5.28;4.70;;;;;;;19.88;83.20;100550.69;4862627;29;20049;-85
2023/06/26 03:28:35;;;;;;;4.45;4.03;;;;;;;19.87;83.01;100541.00;4859355;29;20049;-86
2023/06/26 03:31:02;;;;;;;4.85;4.43;;;;;;;19.91;82.88;100539.06;4863180;29;20045;-86
2023/06/26 03:33:28;;;;;;;4.13;3.72;;;;;;;19.92;82.67;100541.63;4852263;29;20064;-86
2023/06/26 03:35:55;;;;;;;5.70;4.22;;;;;;;19.91;82.57;100542.56;4862437;29;20374;-88
2023/06/26 03:38:23;;;;;;;4.82;4.18;;;;;;;19.93;82.46;100542.47;4869961;29;20517;-86
2023/06/26 03:40:50;;;;;;;6.43;4.32;;;;;;;19.95;82.23;100545.94;4847766;29;20079;-86
2023/06/26 03:43:17;;;;;;;5.63;4.47;;;;;;;19.96;82.05;100545.00;4864981;29;20411;-87
2023/06/26 03:45:43;;;;;;;5.75;3.60;;;;;;;19.99;81.87;100545.69;4852848;29;20041;-85
2023/06/26 03:48:10;;;;;;;4.80;4.35;;;;;;;20.03;81.68;100535.75;4860723;29;20063;-86
2023/06/26 03:50:36;;;;;;;4.65;4.25;;;;;;;20.04;81.45;100536.59;4847890;29;20057;-85
2023/06/26 03:53:03;;;;;;;5.90;4.38;;;;;;;20.09;81.15;100542.56;4859724;29;20553;-85
2023/06/26 03:55:29;;;;;;;4.47;4.07;;;;;;;20.12;80.96;100532.63;4878297;29;20052;-85
2023/06/26 03:57:56;;;;;;;6.25;4.22;;;;;;;20.16;80.74;100536.00;4847580;29;20132;-86
2023/06/26 04:00:23;;;;;;;5.95;4.40;;;;;;;20.20;80.62;100534.91;4875854;29;20049;-86
2023/06/26 04:02:51;;;;;;;6.25;4.50;;;;;;;20.26;80.29;100536.38;4859863;29;20049;-86
2023/06/26 04:05:17;;;;;;;4.75;4.35;;;;;;;20.31;79.89;100531.69;4848765;29;20068;-86
2023/06/26 04:07:44;;;;;;;7.80;4.15;;;;;;;20.43;79.20;100532.88;4850030;29;20045;-86
2023/06/26 04:10:10;;;;;;;4.55;4.22;;;;;;;20.54;78.38;100538.47;4875865;29;20054;-86
2023/06/26 04:12:37;;;;;;;5.00;4.55;;;;;;;20.68;77.64;100529.78;4863545;29;20061;-86
2023/06/26 04:15:03;;;;;;;7.15;4.18;;;;;;;20.82;76.83;100529.91;4865903;29;20523;-86
2023/06/26 04:17:30;;;;;;;5.13;4.45;;;;;;;20.97;76.10;100530.03;4856962;29;20285;-86
2023/06/26 04:19:56;;;;;;;5.20;4.05;;;;;;;21.07;75.40;100535.72;4863828;29;20052;-87
2023/06/26 04:22:23;;;;;;;5.78;4.45;;;;;;;21.10;74.96;100527.56;4855133;29;20057;-86
2023/06/26 04:24:50;;;;;;;5.63;4.75;;;;;;;21.12;74.93;100517.69;4842579;29;20079;-86
2023/06/26 04:27:16;;;;;;;4.70;4.03;;;;;;;21.14;74.81;100523.78;4875762;29;20415;-85
2023/06/26 04:29:43;;;;;;;5.70;4.55;;;;;;;21.16;74.69;100519.25;4851137;29;20522;-85
2023/06/26 04:32:10;;;;;;;4.97;4.47;;;;;;;21.22;74.59;100518.03;4862991;29;20136;-86
2023/06/26 04:34:40;;;;;;;4.40;4.00;;;;;;;21.30;74.42;100514.00;4846167;29;20053;-86
2023/06/26 04:37:09;;;;;;;4.70;4.13;;;;;;;21.33;73.95;100510.31;4860924;29;20053;-86
2023/06/26 04:39:37;;;;;;;5.43;4.47;;;;;;;21.36;73.82;100510.13;4842711;29;20112;-84
2023/06/26 04:42:06;;;;;;;5.00;4.10;;;;;;;21.32;73.80;100508.59;4841010;29;20255;-85
2023/06/26 04:44:33;;;;;;;6.20;4.53;;;;;;;21.27;74.36;100508.81;4860393;29;20427;-84
2023/06/26 04:46:59;;;;;;;4.88;4.47;;;;;;;21.27;74.28;100502.66;4863667;29;20072;-84
2023/06/26 04:49:27;;;;;;;5.53;3.95;;;;;;;21.31;74.43;100501.53;4860796;29;20052;-85
2023/06/26 04:51:55;;;;;;;5.50;4.22;;;;;;;21.35;74.23;100494.25;4846467;29;20072;-83
2023/06/26 04:54:21;;;;;;;4.28;3.97;;;;;;;21.36;74.09;100496.81;4873829;29;20057;-83
2023/06/26 04:56:48;;;;;;;8.07;4.90;;;;;;;21.37;74.09;100497.66;4859907;29;20088;-80
2023/06/26 04:59:15;;;;;;;5.07;3.60;;;;;;;21.41;74.14;100493.91;4858245;29;20237;-82
2023/06/26 05:01:41;;;;;;;4.32;3.97;;;;;;;21.44;74.05;100491.91;4845193;29;20377;-84
2023/06/26 05:04:08;;;;;;;5.18;4.63;;;;;;;21.49;74.19;100492.50;4865515;29;20044;-83
2023/06/26 05:06:34;;;;;;;4.57;4.18;;;;;;;21.53;73.94;100492.34;4847753;29;20052;-85
2023/06/26 05:09:02;;;;;;;4.53;4.13;;;;;;;21.58;73.94;100491.16;4869197;29;20447;-83
2023/06/26 05:11:28;;;;;;;5.43;4.30;;;;;;;21.61;74.03;100484.78;4845900;29;20044;-86
2023/06/26 05:13:55;;;;;;;3.92;3.65;;;;;;;21.68;73.64;100490.59;4862618;29;20116;-85
2023/06/26 05:16:21;;;;;;;5.30;3.95;;;;;;;21.75;73.53;100484.00;4856402;29;20153;-83
2023/06/26 05:18:48;;;;;;;4.50;4.20;;;;;;;21.80;73.00;100477.44;4860191;29;20386;-86
2023/06/26 05:21:17;;;;;;;6.28;4.32;;;;;;;21.92;72.44;100485.66;4837374;29;20061;-87
2023/06/26 05:23:44;;;;;;;6.20;4.57;;;;;;;22.06;71.73;100483.03;4840468;29;20057;-85
2023/06/26 05:26:13;;;;;;;5.25;4.03;;;;;;;22.20;70.64;100481.31;4847349;29;20046;-85
2023/06/26 05:28:40;;;;;;;4.82;4.18;;;;;;;22.33;70.33;100474.28;4848773;29;20109;-85
2023/06/26 05:31:07;;;;;;;5.57;4.93;;;;;;;22.51;69.06;100475.00;4876510;29;20078;-86
2023/06/26 05:33:37;;;;;;;4.20;3.90;;;;;;;22.67;68.59;100474.94;4863898;29;20045;-85
2023/06/26 05:36:09;;;;;;;4.78;3.80;;;;;;;22.77;67.31;100476.03;4880910;29;20049;-83
2023/06/26 05:38:35;;;;;;;4.72;4.43;;;;;;;22.93;66.53;100465.28;4850035;29;20060;-86
2023/06/26 05:41:02;;;;;;;10.27;4.28;;;;;;;23.09;66.20;100461.63;4845864;29;20113;-84
2023/06/26 05:43:30;;;;;;;4.00;3.65;;;;;;;23.23;65.50;100458.06;4866099;29;20529;-84
2023/06/26 05:45:58;;;;;;;4.88;4.40;;;;;;;23.22;64.73;100464.34;4851751;29;20053;-85
2023/06/26 05:48:25;;;;;;;4.78;4.30;;;;;;;23.21;64.73;100462.66;4860833;29;20326;-84
2023/06/26 05:50:52;;;;;;;5.43;4.95;;;;;;;23.18;64.61;100463.72;4868995;29;20064;-86
2023/06/26 05:53:19;;;;;;;5.13;4.45;;;;;;;23.10;64.89;100464.19;4864676;29;20042;-87
2023/06/26 05:55:46;;;;;;;6.45;4.70;;;;;;;23.06;65.30;100460.00;4867586;29;20053;-85
2023/06/26 05:58:13;;;;;;;4.50;3.92;;;;;;;23.05;65.51;100460.06;4849161;29;20052;-87
2023/06/26 06:00:43;;;;;;;9.60;4.63;;;;;;;22.96;65.85;100464.22;4868630;29;20396;-88
2023/06/26 06:03:11;;;;;;;8.05;5.07;;;;;;;22.92;66.31;100462.69;4849836;29;20054;-87
2023/06/26 06:05:37;;;;;;;5.18;4.60;;;;;;;22.85;66.67;100462.22;4865912;29;20527;-86
2023/06/26 06:08:04;;;;;;;5.85;4.43;;;;;;;22.77;67.08;100465.34;4867540;29;20077;-85
2023/06/26 06:10:31;;;;;;;4.57;4.18;;;;;;;22.74;67.54;100460.22;4862431;29;20049;-85
2023/06/26 06:12:57;;;;;;;4.53;3.90;;;;;;;22.75;67.57;100453.06;4873794;29;20463;-85
2023/06/26 06:15:24;;;;;;;4.57;4.18;;;;;;;22.77;67.69;100453.84;4866995;29;20801;-86
2023/06/26 06:17:51;;;;;;;4.78;4.38;;;;;;;22.82;67.40;100451.75;4883875;29;20129;-87
2023/06/26 06:20:19;;;;;;;5.30;4.90;;;;;;;22.90;66.76;100451.25;4866634;29;20410;-87
2023/06/26 06:22:48;;;;;;;11.43;5.50;;;;;;;23.00;66.75;100455.03;4850734;29;20065;-85
2023/06/26 06:25:17;;;;;;;4.57;4.05;;;;;;;23.10;66.42;100455.28;4830465;29;20066;-84
2023/06/26 06:27:44;;;;;;;4.88;4.47;;;;;;;23.23;65.90;100464.28;4853388;29;20064;-86
2023/06/26 06:30:12;;;;;;;4.85;4.05;;;;;;;23.33;65.24;100451.16;4878012;29;20055;-84
2023/06/26 06:32:39;;;;;;;6.30;4.97;;;;;;;23.43;64.80;100459.44;4861073;29;20049;-85
2023/06/26 06:35:09;;;;;;;6.00;4.82;;;;;;;23.55;64.24;100452.41;4865951;29;20046;-85
2023/06/26 06:37:38;;;;;;;4.93;4.35;;;;;;;23.69;63.80;100455.03;4861660;29;20053;-86
2023/06/26 06:40:09;;;;;;;5.80;4.53;;;;;;;23.83;63.34;100443.41;4846947;29;20048;-86
2023/06/26 06:42:36;;;;;;;7.43;4.25;;;;;;;23.93;63.19;100455.19;4862236;29;20687;-86
2023/06/26 06:45:04;;;;;;;9.98;5.63;;;;;;;24.00;63.22;100444.94;4866643;29;20117;-86
2023/06/26 06:47:32;;;;;;;5.13;4.72;;;;;;;24.01;63.32;100459.16;4853042;29;20053;-85
2023/06/26 06:49:59;;;;;;;5.97;4.57;;;;;;;24.05;63.09;100466.88;4859905;29;20524;-86
2023/06/26 06:52:25;;;;;;;5.30;4.55;;;;;;;24.11;62.54;100461.09;4849892;29;20064;-85
2023/06/26 06:54:59;;;;;;;5.68;4.85;;;;;;;24.25;62.13;100461.97;4866666;29;20051;-86
2023/06/26 06:57:26;;;;;;;5.80;4.15;;;;;;;24.33;62.42;100462.28;4862444;29;20054;-86
2023/06/26 06:59:52;;;;;;;6.03;4.95;;;;;;;24.41;60.29;100457.25;4851678;29;20804;-87
2023/06/26 07:02:19;;;;;;;6.72;4.38;;;;;;;24.51;59.35;100467.28;4847321;29;20080;-86
2023/06/26 07:04:46;;;;;;;6.30;5.03;;;;;;;24.61;57.21;100458.53;4866824;29;20057;-87
2023/06/26 07:07:14;;;;;;;5.10;4.60;;;;;;;24.68;56.56;100466.13;4872764;29;20054;-86
2023/06/26 07:09:41;;;;;;;5.93;5.43;;;;;;;24.73;56.04;100458.63;4859762;29;20049;-84
2023/06/26 07:12:08;;;;;;;6.63;5.35;;;;;;;24.79;55.51;100454.66;4866115;29;20045;-85
2023/06/26 07:14:34;;;;;;;5.70;5.10;;;;;;;24.82;55.49;100457.13;4843344;29;20709;-85
2023/06/26 07:17:01;;;;;;;4.97;4.55;;;;;;;24.85;55.11;100462.22;4845355;29;20053;-87
2023/06/26 07:19:27;;;;;;;4.95;4.45;;;;;;;24.86;54.97;100464.81;4848377;29;20042;-87
2023/06/26 07:21:55;;;;;;;5.43;4.93;;;;;;;24.94;55.34;100459.75;4862931;29;20053;-85
2023/06/26 07:24:22;;;;;;;7.50;5.72;;;;;;;25.09;54.57;100465.81;4850269;29;20058;-83
2023/06/26 07:26:48;;;;;;;6.10;4.95;;;;;;;25.32;53.78;100457.03;4848551;29;20471;-86
2023/06/26 07:29:15;;;;;;;6.68;4.72;;;;;;;25.63;53.44;100458.34;4843087;29;20137;-86
2023/06/26 07:31:42;;;;;;;5.50;4.70;;;;;;;26.06;51.06;100460.44;4852265;29;20060;-86
2023/06/26 07:34:08;;;;;;;9.10;5.43;;;;;;;26.41;50.13;100446.09;4860125;29;20080;-86
2023/06/26 07:36:35;;;;;;;5.28;4.75;;;;;;;27.02;49.84;100449.34;4854137;29;20072;-85
2023/06/26 07:39:01;;;;;;;5.03;4.63;;;;;;;27.65;47.62;100452.22;4844506;29;20109;-85
2023/06/26 07:41:30;;;;;;;5.75;5.32;;;;;;;28.14;46.45;100455.25;4847592;29;20467;-86
2023/06/26 07:43:56;;;;;;;5.55;4.97;;;;;;;28.52;44.98;100458.28;4843532;29;20064;-86
2023/06/26 07:46:23;;;;;;;5.32;4.75;;;;;;;28.68;43.25;100457.81;4847397;29;20057;-86
2023/06/26 07:48:50;;;;;;;5.38;4.88;;;;;;;28.80;43.24;100456.72;4857970;29;20558;-87
2023/06/26 07:51:17;;;;;;;6.82;5.60;;;;;;;29.00;42.05;100471.09;4860320;29;20061;-85
2023/06/26 07:53:44;;;;;;;5.53;5.03;;;;;;;29.37;42.23;100475.88;4845153;29;20056;-86
2023/06/26 07:56:11;;;;;;;5.47;4.97;;;;;;;29.58;41.52;100468.63;4846355;29;20055;-86
2023/06/26 07:58:37;;;;;;;5.75;5.22;;;;;;;29.52;41.10;100465.50;4858266;29;20102;-85
2023/06/26 08:01:04;;;;;;;6.20;5.53;;;;;;;29.68;41.34;100464.09;4862290;29;20060;-82
2023/06/26 08:03:30;;;;;;;6.50;5.70;;;;;;;29.78;40.76;100469.50;4860269;29;20050;-85
2023/06/26 08:05:57;;;;;;;5.80;5.38;;;;;;;29.94;40.79;100472.47;4859023;29;20531;-85
2023/06/26 08:08:23;;;;;;;4.93;4.40;;;;;;;29.90;40.74;100473.75;4854805;29;20587;-85
2023/06/26 08:10:50;;;;;;;5.30;4.90;;;;;;;29.66;40.74;100461.53;4870775;29;20132;-85
2023/06/26 08:13:17;;;;;;;5.70;5.20;;;;;;;29.57;41.09;100458.81;4845855;29;20065;-85
2023/06/26 08:15:43;;;;;;;5.70;5.20;;;;;;;29.86;40.89;100464.22;4846430;29;20136;-86
2023/06/26 08:18:16;;;;;;;6.13;5.35;;;;;;;30.42;39.83;100457.13;4857420;29;20107;-87
2023/06/26 08:20:43;;;;;;;5.75;5.25;;;;;;;30.81;38.88;100454.28;4853006;29;20049;-86
2023/06/26 08:23:09;;;;;;;5.25;4.85;;;;;;;31.22;38.29;100450.38;4859328;29;20482;-85
2023/06/26 08:25:38;;;;;;;6.15;5.22;;;;;;;31.26;37.53;100433.66;4860698;29;20526;-87
2023/06/26 08:28:05;;;;;;;6.40;5.78;;;;;;;31.01;38.06;100446.91;4848545;29;20054;-87
2023/06/26 08:30:33;;;;;;;5.28;4.78;;;;;;;31.28;38.36;100437.06;4848437;29;20094;-88
2023/06/26 08:33:00;;;;;;;5.30;4.90;;;;;;;31.40;37.69;100429.56;4874417;29;20125;-87
2023/06/26 08:35:26;;;;;;;6.35;5.72;;;;;;;32.05;36.86;100435.69;4858549;29;20064;-84
2023/06/26 08:37:54;;;;;;;5.47;5.07;;;;;;;32.80;35.98;100430.53;4842102;29;20034;-85
2023/06/26 08:40:22;;;;;;;5.88;5.38;;;;;;;33.12;35.35;100436.19;4845867;29;20049;-84
2023/06/26 08:42:52;;;;;;;5.57;5.13;;;;;;;33.56;33.84;100437.75;4857898;29;20504;-86
2023/06/26 08:45:19;;;;;;;8.40;4.75;;;;;;;32.99;34.60;100444.78;4850044;29;20417;-85
2023/06/26 08:47:46;;;;;;;6.50;5.43;;;;;;;32.57;35.93;100460.03;4873275;29;20518;-86
2023/06/26 08:50:15;;;;;;;6.05;5.55;;;;;;;32.48;35.73;100483.53;4830609;29;20049;-86
2023/06/26 08:52:58;;;;;;;6.10;5.60;;;;;;;32.19;36.53;100464.94;4859791;29;20049;-84
2023/06/26 08:55:26;;;;;;;5.85;5.35;;;;;;;32.12;37.17;100482.78;4859101;29;20072;-86
2023/06/26 08:57:56;;;;;;;7.10;6.35;;;;;;;31.54;38.28;100495.81;4863022;29;20112;-85
2023/06/26 09:00:23;;;;;;;5.68;5.28;;;;;;;31.76;38.24;100507.19;4846913;29;20045;-85
2023/06/26 09:02:50;;;;;;;7.40;6.68;;;;;;;32.09;37.55;100507.47;4853375;29;20069;-84
2023/06/26 09:05:19;;;;;;;6.88;6.30;;;;;;;32.04;37.72;100501.69;4861012;29;20049;-86
2023/06/26 09:07:45;;;;;;;7.47;6.75;;;;;;;31.59;38.75;100495.34;4845724;29;20074;-86
2023/06/26 09:10:12;;;;;;;7.78;5.75;;;;;;;32.03;38.89;100508.94;4858943;29;20049;-84
2023/06/26 09:12:39;;;;;;;7.00;5.88;;;;;;;33.02;37.42;100509.53;4845258;29;20882;-86
2023/06/26 09:15:07;;;;;;;11.38;6.95;;;;;;;33.43;35.78;100512.41;4864851;29;20595;-86
2023/06/26 09:17:41;;;;;;;7.25;6.55;;;;;;;33.36;35.38;100515.94;4856399;29;20109;-86
2023/06/26 09:20:10;;;;;;;10.18;7.47;;;;;;;33.05;35.38;100514.66;4842938;29;20136;-87
2023/06/26 09:22:48;;;;;;;6.95;5.65;;;;;;;33.19;35.11;100515.84;4857598;29;20470;-86
2023/06/26 09:25:17;;;;;;;9.73;6.78;;;;;;;32.23;35.98;100509.63;4857022;29;20152;-85
2023/06/26 09:27:45;;;;;;;7.53;6.82;;;;;;;31.22;38.30;100526.91;4834514;29;20069;-85
2023/06/26 09:30:12;;;;;;;8.63;6.88;;;;;;;30.95;38.85;100519.63;4844853;29;20049;-85
2023/06/26 09:32:39;;;;;;;8.43;7.32;;;;;;;31.29;38.61;100529.88;4847512;29;20053;-82
2023/06/26 09:35:06;;;;;;;7.95;7.20;;;;;;;31.66;38.39;100529.78;4850227;29;20140;-87
2023/06/26 09:37:34;;;;;;;7.50;6.80;;;;;;;31.58;38.90;100534.25;4841782;29;20053;-81
2023/06/26 09:40:00;;;;;;;8.57;7.68;;;;;;;31.29;39.54;100548.78;4856897;29;20041;-84
2023/06/26 09:42:27;;;;;;;8.30;7.50;;;;;;;31.81;39.04;100540.91;4866753;29;20137;-85
2023/06/26 09:44:54;;;;;;;7.97;7.03;;;;;;;32.52;37.38;100549.09;4843332;29;20045;-83
2023/06/26 09:47:21;;;;;;;13.20;8.55;;;;;;;31.34;39.64;100552.75;4848412;29;20049;-82
2023/06/26 09:49:48;;;;;;;8.70;7.90;;;;;;;29.53;43.32;100560.78;4857515;29;20102;-83
2023/06/26 09:52:17;;;;;;;8.23;7.53;;;;;;;28.51;45.86;100567.84;4869862;29;20058;-83
2023/06/26 09:54:44;;;;;;;9.98;7.03;;;;;;;27.92;47.75;100568.38;4841371;29;20057;-82
2023/06/26 09:57:18;;;;;;;7.90;7.03;;;;;;;27.44;48.70;100561.53;4852329;29;20089;-80
2023/06/26 09:59:46;;;;;;;8.35;7.28;;;;;;;27.10;49.87;100567.78;4829228;29;20053;-81
2023/06/26 10:02:12;;;;;;;9.38;7.60;;;;;;;27.07;51.14;100574.25;4841354;29;20082;-81
2023/06/26 10:04:39;;;;;;;9.80;7.82;;;;;;;27.02;51.43;100572.91;4840701;29;20057;-84
2023/06/26 10:07:09;;;;;;;10.18;7.72;;;;;;;26.95;51.95;100571.69;4858365;29;20045;-83
2023/06/26 10:09:42;;;;;;;9.13;8.23;;;;;;;26.95;52.85;100580.63;4840293;29;20041;-80
2023/06/26 10:12:27;;;;;;;12.60;8.23;;;;;;;27.05;53.68;100578.91;4840840;29;20058;-83
2023/06/26 10:14:54;;;;;;;11.40;9.13;;;;;;;27.01;54.34;100574.75;4843686;29;20485;-86
2023/06/26 10:17:21;;;;;;;12.30;9.13;;;;;;;27.06;54.37;100580.63;4841948;29;20433;-78
2023/06/26 10:19:51;;;;;;;14.73;9.75;;;;;;;26.83;55.79;100584.25;4852986;29;20098;-80
2023/06/26 10:22:19;;;;;;;10.98;9.82;;;;;;;26.54;56.75;100595.41;4860288;29;20908;-81
2023/06/26 10:24:48;;;;;;;13.60;8.10;;;;;;;26.22;56.50;100604.97;4861796;29;20556;-82
2023/06/26 10:27:21;;;;;;;8.55;7.65;;;;;;;25.86;57.10;100620.13;4841422;29;20122;-81
2023/06/26 10:29:54;;;;;;;7.60;6.85;;;;;;;25.64;57.45;100644.97;4844268;29;20609;-81
2023/06/26 10:32:28;;;;;;;10.00;6.85;;;;;;;25.30;59.35;100630.47;4857527;29;20063;-82
2023/06/26 10:35:03;;;;;;;18.17;9.00;;;;;;;24.58;70.19;100634.50;4845050;29;20136;-86
2023/06/26 10:37:51;;;;;;;7.70;6.90;;;;;;;23.84;77.98;100650.91;4860057;29;20061;-81
2023/06/26 10:40:44;;;;;;;10.85;7.15;;;;;;;24.10;78.34;100643.03;4850278;29;20137;-83
2023/06/26 10:43:19;;;;;;;12.27;7.68;;;;;;;24.19;76.70;100654.97;4855062;29;20054;-83
2023/06/26 10:45:52;;;;;;;9.82;8.18;;;;;;;24.14;76.61;100654.41;4871904;29;20071;-82
2023/06/26 10:48:18;;;;;;;;;;;;;;;24.33;78.18;100659.41;4877012;29;20105;-79
2023/06/26 10:50:49;;;;;;;16.25;7.80;;;;;;;24.60;75.50;100649.50;4839566;29;19934;-81
2023/06/26 10:53:26;;;;;;;10.02;8.52;;;;;;;25.41;71.66;100660.06;4847129;29;20050;-88
2023/06/26 10:56:02;;;;;;;11.90;10.15;;;;;;;25.91;68.50;100651.97;4857564;29;20052;-80
2023/06/26 10:58:41;;;;;;;11.73;9.38;;;;;;;26.32;65.70;100644.53;4853860;29;20052;-79
2023/06/26 11:01:27;;;;;;;16.10;9.80;;;;;;;26.58;64.25;100645.22;4840321;29;20126;-80
2023/06/26 11:04:08;;;;;;;9.32;8.02;;;;;;;26.67;62.39;100641.81;4860989;29;20434;-84
2023/06/26 11:06:38;;;;;;;10.55;8.10;;;;;;;26.15;63.08;100654.72;4845186;29;20069;-84
2023/06/26 11:09:05;;;;;;;10.70;7.95;;;;;;;25.85;64.81;100650.63;4860121;29;20049;-81
2023/06/26 11:11:53;;;;;;;8.25;7.40;;;;;;;25.80;63.14;100646.53;4857227;29;20100;-81
2023/06/26 11:14:22;;;;;;;9.43;7.93;;;;;;;25.82;62.98;100647.31;4858346;29;20073;-83
2023/06/26 11:16:49;;;;;;;10.20;8.43;;;;;;;25.98;61.69;100652.38;4845161;29;20798;-82
2023/06/26 11:19:18;;;;;;;9.52;7.35;;;;;;;25.90;61.84;100655.63;4864675;29;20437;-83
2023/06/26 11:21:45;;;;;;;8.68;7.97;;;;;;;25.85;61.93;100652.44;4854666;29;20041;-82
2023/06/26 11:24:13;;;;;;;9.95;7.80;;;;;;;25.93;61.11;100644.69;4847582;29;20077;-84
2023/06/26 11:26:43;;;;;;;9.20;8.30;;;;;;;25.97;60.63;100656.91;4858293;29;20097;-82
2023/06/26 11:29:11;;;;;;;8.55;7.68;;;;;;;26.03;60.23;100644.84;4842670;29;20076;-85
2023/06/26 11:31:41;;;;;;;8.75;7.53;;;;;;;25.91;60.25;100657.34;4845971;29;20053;-84